KPZQ METAR Reports


Rogers City, Presque Isle County Airport, MI, United States (KPZQ) 45-24-25N 083-48-46W
Feb 07, 2023 - 12:35 PM EST / 2023.02.07 1735 UTC
Wind: from the W (280 degrees) at 12 MPH (10 KT) gusting to 22 MPH (19 KT):0
Visibility: 7 mile(s):0
Sky conditions: overcast
Temperature: 36.1 F (2.3 C)
Dew Point: 33.6 F (0.9 C)
Relative Humidity: 90%
Pressure (altimeter): 29.71 in. Hg (1006 hPa)
ob: KPZQ 071735Z AUTO 28010G19KT 7SM OVC012 02/01 A2971 RMK AO2 T00230009
cycle: 17

 

Rogers City METAR Meteogram

Weather Chart

Nearby METAR Reports

KPZQ - Rogers City, Michigan, USA
Distance from station: SSW 1mi, 2km
Updated: Tue, 07-Feb-2023 12:35pm EST
Overcast
Overcast
 Wind from W
Wind: W 12 mph , 19 km/h, Gust: 22 mph , 35 km/h
Temperature: 36°F , 2°C
Wind Chill: 28°F , -2°C
Dew Point: 34°F , 1°C
Humidity: 93%
Barometer: 29.71 inHg , 1006.1 hPa
Clouds: Overcast
Visibility: 7 miles , 11 km
Cloud details: Overcast 1200 ft
2023/02/07 17:35 KPZQ 071735Z AUTO 28010G19KT 7SM OVC012 02/01 A2971 RMK AO2 T00230009
KAPN - Alpena, Michigan, USA
Distance from station: SSE 27mi, 43km
Updated: Tue, 07-Feb-2023 11:54am EST
NOT Current
Mist, Overcast
Mist, Overcast
 Wind from WSW
Wind: WSW 12 mph , 19 km/h, Gust: 24 mph , 39 km/h
Temperature: 39°F , 4°C
Wind Chill: 32°F , 0°C
Dew Point: 37°F , 3°C
Humidity: 93%
Barometer: 29.67 inHg , 1004.7 hPa
Summary: Mist
Clouds: Overcast
Visibility: 4 miles , 6 km
Cloud details: Overcast 1200 ft
2023/02/07 16:54 KAPN 071654Z AUTO 25010G21KT 4SM BR OVC012 04/03 A2967 RMK AO2 SLP054 T00390028
 
KSLH - Cheboygan, Michigan, USA
Distance from station: WNW 38mi, 61km
Updated: Tue, 07-Feb-2023 12:35pm EST
Overcast
Overcast
 Wind from W
Wind: W 12 mph , 19 km/h, Gust: 23 mph , 37 km/h
Temperature: 36°F , 2°C
Wind Chill: 28°F , -2°C
Dew Point: 34°F , 1°C
Humidity: 93%
Barometer: 29.70 inHg , 1005.8 hPa
Clouds: Overcast
Visibility: 10 miles , 16 km
Cloud details: Mostly cloudy 1600 ft
Overcast 2400 ft
2023/02/07 17:35 KSLH 071735Z AUTO 26010G20KT 10SM BKN016 OVC024 02/01 A2970 RMK AO2
KDRM - Drummond Is, Michigan, USA
Distance from station: N 40mi, 65km
Updated: Tue, 07-Feb-2023 12:35pm EST
Overcast
Overcast
 Wind from W
Wind: W 7 mph , 11 km/h, Gust: 16 mph , 26 km/h
Temperature: 37°F , 3°C
Wind Chill: 32°F , 0°C
Dew Point: 34°F , 1°C
Humidity: 87%
Barometer: 29.65 inHg , 1004.1 hPa
Clouds: Overcast
Visibility: 10 miles , 16 km
Cloud details: Overcast 1100 ft
2023/02/07 17:35 KDRM 071735Z AUTO 27006G14KT 10SM OVC011 03/01 A2965 RMK AO2 T00290005
 
KPLN - Pellston, Michigan, USA
Distance from station: WNW 49mi, 79km
Updated: Tue, 07-Feb-2023 12:30pm EST
Overcast
Overcast
 Wind from W
Wind: W 14 mph , 22 km/h, Gust: 25 mph , 41 km/h
Temperature: 37°F , 3°C
Wind Chill: 28°F , -2°C
Dew Point: 32°F , 0°C
Humidity: 81%
Barometer: 29.72 inHg , 1006.4 hPa
Clouds: Overcast
Visibility: 10 miles , 16 km
Cloud details: Mostly cloudy 1600 ft
Mostly cloudy 2600 ft
Overcast 3900 ft
2023/02/07 17:30 KPLN 071730Z AUTO 28012G22KT 10SM BKN016 BKN026 OVC039 03/00 A2972 RMK AO2 T00280000
KMCD - Mackinac Island, Michigan, USA
Distance from station: NW 50mi, 80km
Updated: Tue, 07-Feb-2023 12:35pm EST
Overcast
Overcast
 Wind from W
Wind: W 21 mph , 33 km/h, Gust: 31 mph , 50 km/h
Temperature: 34°F , 1°C
Wind Chill: 22°F , -6°C
Dew Point: 34°F , 1°C
Humidity: 100%
Barometer: 29.70 inHg , 1005.8 hPa
Clouds: Overcast
Visibility: 10 miles , 16 km
Cloud details: Mostly cloudy 1000 ft
Overcast 1400 ft
2023/02/07 17:35 KMCD 071735Z AUTO 27018G27KT 10SM BKN010 OVC014 01/01 A2970 RMK AO2 T00130013